Archival Weather

Ambodedjo

Ambodedjo, Mali (GAMB)

Report from: Tuesday, June 6, 2023 6:00 PM GMT
Current time: Wednesday, May 29, 2024 8:44 AM GMT

Current weather – Weather history – Daily summaries
Weather forecast

Temperature41.0°C (105.8°F)
Heat index38.7°C (101.6°F)
Dew point7.0°C (44.6°F)
Winds 8 kts (4.1 m/s, 9.2 mph) North-Northwest (340°)
Clouds Sky clear
Altimeter29.77 in.Hg (1008 mB)
Relative humidity13 %
Density altitude3,238 ft. (987 m)
Remarks Ceiling and visibility OK
Flight conditions Visual Meteorological Conditions
Raw dataGAMB 061800Z 34008KT CAVOK 41/07 Q1008
An error has occurred. This application may no longer respond until reloaded. Reload 🗙